Time,TemperatureF,DewpointF,PressureIn,WindDirection,WindDirectionDegrees,WindSpeedMPH,WindSpeedGustMPH,Humidity,HourlyPrecipIn,Conditions,Clouds,dailyrainin,SoftwareType,DateUTC
2013-02-23 00:02:00,18.3,11.7,26.67,WNW,292,0.0,0.0,75,0.00,,,0.00,VWS V14.01,2013-02-23 07:02:00,
2013-02-23 00:07:00,18.5,11.6,26.67,WNW,292,0.0,0.0,74,0.00,,,0.00,VWS V14.01,2013-02-23 07:07:00,
2013-02-23 00:12:00,18.5,11.6,26.67,WNW,292,0.0,0.0,74,0.00,,,0.00,VWS V14.01,2013-02-23 07:12:00,
2013-02-23 00:17:00,18.5,11.6,26.67,WNW,292,0.0,0.0,74,0.00,,,0.00,VWS V14.01,2013-02-23 07:17:00,
2013-02-23 00:22:00,18.5,11.6,26.67,WNW,292,0.0,0.0,74,0.00,,,0.00,VWS V14.01,2013-02-23 07:22:00,
2013-02-23 00:27:00,18.3,11.4,26.67,WNW,292,0.0,0.0,74,0.00,,,0.00,VWS V14.01,2013-02-23 07:27:00,
2013-02-23 00:32:00,18.3,11.4,26.66,WNW,292,0.0,0.0,74,0.00,,,0.00,VWS V14.01,2013-02-23 07:32:00,
2013-02-23 00:37:00,18.3,11.4,26.66,WNW,292,0.0,0.0,74,0.00,,,0.00,VWS V14.01,2013-02-23 07:37:00,
2013-02-23 00:42:00,18.3,11.4,26.67,WNW,292,0.0,0.0,74,0.00,,,0.00,VWS V14.01,2013-02-23 07:42:00,
2013-02-23 00:47:00,18.3,11.4,26.66,WNW,292,0.0,0.0,74,0.00,,,0.00,VWS V14.01,2013-02-23 07:47:00,
2013-02-23 00:52:00,18.3,11.4,26.66,WNW,292,0.0,0.0,74,0.00,,,0.00,VWS V14.01,2013-02-23 07:52:00,
2013-02-23 00:57:00,18.1,10.9,26.66,WNW,292,0.0,0.0,73,0.00,,,0.00,VWS V14.01,2013-02-23 07:57:00,
2013-02-23 01:03:00,18.1,10.9,26.66,WNW,292,0.0,0.0,73,0.00,,,0.00,VWS V14.01,2013-02-23 08:03:00,
2013-02-23 01:08:00,17.7,10.8,26.66,NW,315,0.0,0.0,74,0.00,,,0.00,VWS V14.01,2013-02-23 08:08:00,
2013-02-23 01:13:00,17.7,10.8,26.65,NW,315,0.0,0.0,74,0.00,,,0.00,VWS V14.01,2013-02-23 08:13:00,
2013-02-23 01:18:00,17.9,11.0,26.65,NW,315,0.0,0.0,74,0.00,,,0.00,VWS V14.01,2013-02-23 08:18:00,
2013-02-23 01:23:00,17.9,10.7,26.65,WNW,292,0.0,0.0,73,0.00,,,0.00,VWS V14.01,2013-02-23 08:23:00,
2013-02-23 01:28:00,17.9,10.7,26.65,WNW,292,0.0,0.0,73,0.00,,,0.00,VWS V14.01,2013-02-23 08:28:00,
2013-02-23 01:33:00,17.9,10.7,26.65,WNW,292,0.0,0.0,73,0.00,,,0.00,VWS V14.01,2013-02-23 08:33:00,
2013-02-23 01:38:00,17.7,10.5,26.65,West,270,1.3,1.3,73,0.00,,,0.00,VWS V14.01,2013-02-23 08:38:00,
2013-02-23 01:43:00,17.7,10.5,26.65,West,270,0.0,1.3,73,0.00,,,0.00,VWS V14.01,2013-02-23 08:43:00,
2013-02-23 01:48:00,17.2,10.1,26.64,WSW,248,0.0,0.0,73,0.00,,,0.00,VWS V14.01,2013-02-23 08:48:00,
2013-02-23 01:53:00,16.8,9.4,26.64,WSW,248,0.0,0.0,72,0.00,,,0.00,VWS V14.01,2013-02-23 08:53:00,
2013-02-23 01:58:00,16.7,9.6,26.64,WSW,248,0.0,0.0,73,0.00,,,0.00,VWS V14.01,2013-02-23 08:58:00,
2013-02-23 02:03:00,16.5,9.4,26.64,WSW,248,0.0,0.0,73,0.00,,,0.00,VWS V14.01,2013-02-23 09:03:00,
2013-02-23 02:08:00,16.3,9.2,26.64,WSW,248,0.0,0.0,73,0.00,,,0.00,VWS V14.01,2013-02-23 09:08:00,
2013-02-23 02:13:00,16.3,9.2,26.63,WSW,248,0.0,0.0,73,0.00,,,0.00,VWS V14.01,2013-02-23 09:13:00,
2013-02-23 02:18:00,16.3,9.2,26.63,West,270,0.0,0.0,73,0.00,,,0.00,VWS V14.01,2013-02-23 09:18:00,
2013-02-23 02:23:00,16.3,9.2,26.63,West,270,0.0,0.0,73,0.00,,,0.00,VWS V14.01,2013-02-23 09:23:00,
2013-02-23 02:28:00,16.3,9.2,26.63,West,270,0.0,0.0,73,0.00,,,0.00,VWS V14.01,2013-02-23 09:28:00,
2013-02-23 02:33:00,16.3,9.2,26.63,West,270,0.0,0.0,73,0.00,,,0.00,VWS V14.01,2013-02-23 09:33:00,
2013-02-23 02:38:00,16.1,9.0,26.63,West,270,0.0,0.0,73,0.00,,,0.00,VWS V14.01,2013-02-23 09:38:00,
2013-02-23 02:43:00,15.9,8.8,26.63,SSW,202,0.0,0.0,73,0.00,,,0.00,VWS V14.01,2013-02-23 09:43:00,
2013-02-23 02:49:00,15.6,8.5,26.62,SSW,202,0.0,0.0,73,0.00,,,0.00,VWS V14.01,2013-02-23 09:49:00,
2013-02-23 02:54:00,15.4,8.3,26.61,SSW,202,0.0,0.0,73,0.00,,,0.00,VWS V14.01,2013-02-23 09:54:00,
2013-02-23 02:59:00,15.0,7.9,26.62,SSW,202,0.0,0.0,73,0.00,,,0.00,VWS V14.01,2013-02-23 09:59:00,
2013-02-23 03:04:00,14.7,7.6,26.62,WSW,248,0.0,0.0,73,0.00,,,0.00,VWS V14.01,2013-02-23 10:04:00,
2013-02-23 03:09:00,14.7,7.6,26.62,WSW,248,0.0,0.0,73,0.00,,,0.00,VWS V14.01,2013-02-23 10:09:00,
2013-02-23 03:14:00,14.5,7.4,26.61,WSW,248,0.0,0.0,73,0.00,,,0.00,VWS V14.01,2013-02-23 10:14:00,
2013-02-23 03:19:00,14.5,7.4,26.61,WNW,292,0.0,2.0,73,0.00,,,0.00,VWS V14.01,2013-02-23 10:19:00,
2013-02-23 03:24:00,14.7,7.6,26.61,WNW,292,2.4,2.4,73,0.00,,,0.00,VWS V14.01,2013-02-23 10:24:00,
2013-02-23 03:29:00,14.9,8.1,26.61,West,270,0.0,2.4,74,0.00,,,0.00,VWS V14.01,2013-02-23 10:29:00,
2013-02-23 03:34:00,15.4,8.6,26.60,West,270,0.0,3.8,74,0.00,,,0.00,VWS V14.01,2013-02-23 10:34:00,
2013-02-23 03:39:00,15.6,9.1,26.60,NNW,338,0.0,3.8,75,0.00,,,0.00,VWS V14.01,2013-02-23 10:39:00,
2013-02-23 03:44:00,15.9,9.1,26.61,NW,315,0.0,3.8,74,0.00,,,0.00,VWS V14.01,2013-02-23 10:44:00,
2013-02-23 03:49:00,16.3,9.5,26.60,WNW,292,0.0,0.0,74,0.00,,,0.00,VWS V14.01,2013-02-23 10:49:00,
2013-02-23 03:54:00,16.5,9.7,26.60,NW,315,0.0,1.7,74,0.00,,,0.00,VWS V14.01,2013-02-23 10:54:00,
2013-02-23 03:59:00,16.7,9.9,26.60,NW,315,0.0,1.7,74,0.00,,,0.00,VWS V14.01,2013-02-23 10:59:00,
2013-02-23 04:04:00,16.8,10.0,26.60,NNW,338,2.4,2.4,74,0.00,,,0.00,VWS V14.01,2013-02-23 11:04:00,
2013-02-23 04:09:00,17.2,10.4,26.60,WNW,292,2.4,2.6,74,0.00,,,0.00,VWS V14.01,2013-02-23 11:09:00,
2013-02-23 04:14:00,17.4,10.6,26.60,WNW,292,3.3,3.3,74,0.00,,,0.00,VWS V14.01,2013-02-23 11:14:00,
2013-02-23 04:19:00,17.4,10.6,26.60,NW,315,0.8,3.3,74,0.00,,,0.00,VWS V14.01,2013-02-23 11:19:00,
2013-02-23 04:24:00,17.7,10.5,26.60,WNW,292,2.4,4.4,73,0.00,,,0.00,VWS V14.01,2013-02-23 11:24:00,
2013-02-23 04:29:00,18.1,10.9,26.60,WNW,292,2.4,4.4,73,0.00,,,0.00,VWS V14.01,2013-02-23 11:29:00,
2013-02-23 04:34:00,18.1,10.9,26.60,WNW,292,3.3,3.3,73,0.00,,,0.00,VWS V14.01,2013-02-23 11:34:00,
2013-02-23 04:39:00,18.3,10.8,26.60,NW,315,0.0,3.3,72,0.00,,,0.00,VWS V14.01,2013-02-23 11:39:00,
2013-02-23 04:44:00,18.3,10.8,26.60,NW,315,2.0,3.3,72,0.00,,,0.00,VWS V14.01,2013-02-23 11:44:00,
2013-02-23 04:49:00,18.5,11.0,26.60,WNW,292,2.4,2.9,72,0.00,,,0.00,VWS V14.01,2013-02-23 11:49:00,
2013-02-23 04:54:00,18.6,11.1,26.60,NW,315,2.4,2.9,72,0.00,,,0.00,VWS V14.01,2013-02-23 11:54:00,
2013-02-23 04:59:00,18.8,11.3,26.60,WNW,292,1.5,2.9,72,0.00,,,0.00,VWS V14.01,2013-02-23 11:59:00,
2013-02-23 05:04:00,19.0,11.2,26.60,WNW,292,1.3,2.2,71,0.00,,,0.00,VWS V14.01,2013-02-23 12:04:00,
2013-02-23 05:09:00,19.0,11.2,26.60,WNW,292,2.6,2.6,71,0.00,,,0.00,VWS V14.01,2013-02-23 12:09:00,
2013-02-23 05:14:00,19.2,11.4,26.60,WNW,292,2.4,2.6,71,0.00,,,0.00,VWS V14.01,2013-02-23 12:14:00,
2013-02-23 05:19:00,19.2,11.4,26.60,NW,315,0.0,2.4,71,0.00,,,0.00,VWS V14.01,2013-02-23 12:19:00,
2013-02-23 05:24:00,19.2,11.4,26.60,NW,315,2.2,2.4,71,0.00,,,0.00,VWS V14.01,2013-02-23 12:24:00,
2013-02-23 05:29:00,19.0,10.8,26.60,NW,315,1.5,2.4,70,0.00,,,0.00,VWS V14.01,2013-02-23 12:29:00,
2013-02-23 05:35:00,19.0,10.8,26.59,NW,315,0.0,1.5,70,0.00,,,0.00,VWS V14.01,2013-02-23 12:35:00,
2013-02-23 05:40:00,19.0,10.8,26.59,NW,315,0.0,1.7,70,0.00,,,0.00,VWS V14.01,2013-02-23 12:40:00,
2013-02-23 05:45:00,18.8,10.6,26.59,NW,315,0.0,1.7,70,0.00,,,0.00,VWS V14.01,2013-02-23 12:45:00,
2013-02-23 05:50:00,18.8,10.6,26.59,NW,315,0.0,0.0,70,0.00,,,0.00,VWS V14.01,2013-02-23 12:50:00,
2013-02-23 05:55:00,18.6,10.1,26.59,WNW,292,0.0,0.0,69,0.00,,,0.00,VWS V14.01,2013-02-23 12:55:00,
2013-02-23 06:00:00,18.3,9.9,26.59,WNW,292,0.0,0.0,69,0.00,,,0.00,VWS V14.01,2013-02-23 13:00:00,
2013-02-23 06:05:00,17.9,9.1,26.59,WNW,292,0.0,0.0,68,0.00,,,0.00,VWS V14.01,2013-02-23 13:05:00,
2013-02-23 06:10:00,17.2,8.5,26.59,WNW,292,0.0,0.0,68,0.00,,,0.00,VWS V14.01,2013-02-23 13:10:00,
2013-02-23 06:15:00,16.3,7.6,26.59,WNW,292,0.0,0.0,68,0.00,,,0.00,VWS V14.01,2013-02-23 13:15:00,
2013-02-23 06:20:00,15.9,7.5,26.59,WNW,292,0.0,0.0,69,0.00,,,0.00,VWS V14.01,2013-02-23 13:20:00,
2013-02-23 06:25:00,15.8,7.4,26.59,WNW,292,0.0,0.0,69,0.00,,,0.00,VWS V14.01,2013-02-23 13:25:00,
2013-02-23 06:30:00,15.6,7.3,26.59,WNW,292,0.0,0.0,69,0.00,,,0.00,VWS V14.01,2013-02-23 13:30:00,
2013-02-23 06:35:00,15.6,7.6,26.59,WNW,292,0.0,0.0,70,0.00,,,0.00,VWS V14.01,2013-02-23 13:35:00,
2013-02-23 06:40:00,15.4,7.4,26.59,WNW,292,0.0,0.0,70,0.00,,,0.00,VWS V14.01,2013-02-23 13:40:00,
2013-02-23 06:45:00,15.4,7.4,26.60,WNW,292,0.0,0.0,70,0.00,,,0.00,VWS V14.01,2013-02-23 13:45:00,
2013-02-23 06:50:00,15.9,8.2,26.59,WNW,292,0.0,0.0,71,0.00,,,0.00,VWS V14.01,2013-02-23 13:50:00,
2013-02-23 06:55:00,17.4,10.2,26.60,WNW,292,0.0,0.0,73,0.00,,,0.00,VWS V14.01,2013-02-23 13:55:00,
2013-02-23 07:00:00,19.0,11.5,26.59,WNW,292,0.0,0.0,72,0.00,,,0.00,VWS V14.01,2013-02-23 14:00:00,
2013-02-23 07:05:00,20.8,12.6,26.59,WNW,292,0.0,0.0,70,0.00,,,0.00,VWS V14.01,2013-02-23 14:05:00,
2013-02-23 07:10:00,21.9,13.0,26.59,SE,135,0.0,0.0,68,0.00,,,0.00,VWS V14.01,2013-02-23 14:10:00,
2013-02-23 07:15:00,23.7,14.4,26.60,SE,135,0.0,0.0,67,0.00,,,0.00,VWS V14.01,2013-02-23 14:15:00,
2013-02-23 07:20:00,25.5,15.0,26.60,South,180,0.0,0.0,64,0.00,,,0.00,VWS V14.01,2013-02-23 14:20:00,
2013-02-23 07:25:00,26.0,15.1,26.59,South,180,0.0,0.0,63,0.00,,,0.00,VWS V14.01,2013-02-23 14:25:00,
2013-02-23 07:30:00,26.9,16.0,26.60,South,180,0.0,0.0,63,0.00,,,0.00,VWS V14.01,2013-02-23 14:30:00,
2013-02-23 07:35:00,31.8,19.9,26.60,South,180,0.0,0.0,61,0.00,,,0.00,VWS V14.01,2013-02-23 14:35:00,
2013-02-23 07:40:00,36.1,21.9,26.60,South,180,0.0,0.0,56,0.00,,,0.00,VWS V14.01,2013-02-23 14:40:00,
2013-02-23 07:46:00,39.9,23.7,26.60,South,180,0.0,0.0,52,0.00,,,0.00,VWS V14.01,2013-02-23 14:46:00,
2013-02-23 07:51:00,42.6,24.3,26.60,SSW,202,0.0,0.0,48,0.00,,,0.00,VWS V14.01,2013-02-23 14:51:00,
2013-02-23 07:56:00,43.3,24.4,26.60,SSW,202,0.0,0.0,47,0.00,,,0.00,VWS V14.01,2013-02-23 14:56:00,
2013-02-23 08:01:00,43.5,24.6,26.60,South,180,0.0,0.0,47,0.00,,,0.00,VWS V14.01,2013-02-23 15:01:00,
2013-02-23 08:06:00,44.4,24.9,26.60,West,270,0.0,0.0,46,0.00,,,0.00,VWS V14.01,2013-02-23 15:06:00,
2013-02-23 08:11:00,45.6,25.5,26.60,WNW,292,0.0,0.0,45,0.00,,,0.00,VWS V14.01,2013-02-23 15:11:00,
2013-02-23 08:16:00,47.4,26.6,26.60,WNW,292,1.7,1.7,44,0.00,,,0.00,VWS V14.01,2013-02-23 15:16:00,
2013-02-23 08:21:00,50.5,27.1,26.60,West,270,0.0,1.7,40,0.00,,,0.00,VWS V14.01,2013-02-23 15:21:00,
2013-02-23 08:26:00,52.3,27.5,26.61,WNW,292,0.0,1.7,38,0.00,,,0.00,VWS V14.01,2013-02-23 15:26:00,
2013-02-23 08:31:00,53.6,25.9,26.61,WNW,292,0.0,0.0,34,0.00,,,0.00,VWS V14.01,2013-02-23 15:31:00,
2013-02-23 08:36:00,53.7,26.0,26.61,WSW,248,0.0,0.0,34,0.00,,,0.00,VWS V14.01,2013-02-23 15:36:00,
2013-02-23 08:41:00,53.7,25.3,26.61,WSW,248,0.0,0.0,33,0.00,,,0.00,VWS V14.01,2013-02-23 15:41:00,
2013-02-23 08:46:00,53.4,25.0,26.61,SW,225,0.0,0.0,33,0.00,,,0.00,VWS V14.01,2013-02-23 15:46:00,
2013-02-23 08:51:00,53.7,25.3,26.61,SW,225,0.0,0.0,33,0.00,,,0.00,VWS V14.01,2013-02-23 15:51:00,
2013-02-23 08:56:00,53.7,24.6,26.61,West,270,0.0,0.0,32,0.00,,,0.00,VWS V14.01,2013-02-23 15:56:00,
2013-02-23 09:01:00,53.9,25.5,26.61,West,270,0.0,0.0,33,0.00,,,0.00,VWS V14.01,2013-02-23 16:01:00,
2013-02-23 09:06:00,53.9,24.7,26.61,WNW,292,0.0,0.0,32,0.00,,,0.00,VWS V14.01,2013-02-23 16:06:00,
2013-02-23 09:11:00,54.1,24.9,26.61,West,270,0.0,0.0,32,0.00,,,0.00,VWS V14.01,2013-02-23 16:11:00,
2013-02-23 09:16:00,54.3,25.1,26.61,West,270,0.0,0.0,32,0.00,,,0.00,VWS V14.01,2013-02-23 16:16:00,
2013-02-23 09:21:00,53.7,24.6,26.60,NW,315,0.0,0.0,32,0.00,,,0.00,VWS V14.01,2013-02-23 16:21:00,
2013-02-23 09:26:00,53.7,24.6,26.60,NW,315,0.0,0.0,32,0.00,,,0.00,VWS V14.01,2013-02-23 16:26:00,
2013-02-23 09:31:00,53.9,24.0,26.60,NW,315,0.0,0.0,31,0.00,,,0.00,VWS V14.01,2013-02-23 16:31:00,
2013-02-23 09:36:00,53.7,24.6,26.60,NW,315,0.0,0.0,32,0.00,,,0.00,VWS V14.01,2013-02-23 16:36:00,
2013-02-23 09:41:00,53.9,24.7,26.60,West,270,0.0,0.0,32,0.00,,,0.00,VWS V14.01,2013-02-23 16:41:00,
2013-02-23 09:46:00,54.5,24.5,26.60,North,0,0.0,0.0,31,0.00,,,0.00,VWS V14.01,2013-02-23 16:46:00,
2013-02-23 09:51:00,55.5,25.4,26.60,NNW,338,0.0,0.0,31,0.00,,,0.00,VWS V14.01,2013-02-23 16:51:00,
2013-02-23 09:56:00,57.0,25.1,26.60,West,270,0.0,0.0,29,0.00,,,0.00,VWS V14.01,2013-02-23 16:56:00,
2013-02-23 10:01:00,57.5,24.7,26.60,North,0,0.0,0.0,28,0.00,,,0.00,VWS V14.01,2013-02-23 17:01:00,
2013-02-23 10:07:00,57.9,24.1,26.60,North,0,0.0,0.0,27,0.00,,,0.00,VWS V14.01,2013-02-23 17:07:00,
2013-02-23 10:12:00,59.1,24.3,26.60,SSW,202,0.0,0.6,26,0.00,,,0.00,VWS V14.01,2013-02-23 17:12:00,
2013-02-23 10:17:00,59.7,24.8,26.60,West,270,0.0,0.0,26,0.00,,,0.00,VWS V14.01,2013-02-23 17:17:00,
2013-02-23 10:22:00,60.4,24.4,26.60,NE,45,0.0,0.0,25,0.00,,,0.00,VWS V14.01,2013-02-23 17:22:00,
2013-02-23 10:27:00,61.5,25.4,26.60,SE,135,0.0,0.0,25,0.00,,,0.00,VWS V14.01,2013-02-23 17:27:00,
2013-02-23 10:32:00,61.8,24.6,26.59,ESE,112,0.0,0.0,24,0.00,,,0.00,VWS V14.01,2013-02-23 17:32:00,
2013-02-23 10:37:00,62.2,25.0,26.59,ENE,68,0.0,0.0,24,0.00,,,0.00,VWS V14.01,2013-02-23 17:37:00,
2013-02-23 10:42:00,61.5,23.4,26.59,ENE,68,0.0,0.0,23,0.00,,,0.00,VWS V14.01,2013-02-23 17:42:00,
2013-02-23 10:47:00,61.3,23.2,26.59,ESE,112,2.0,2.0,23,0.00,,,0.00,VWS V14.01,2013-02-23 17:47:00,
2013-02-23 10:52:00,61.1,20.9,26.59,SE,135,0.0,2.9,21,0.00,,,0.00,VWS V14.01,2013-02-23 17:52:00,
2013-02-23 10:57:00,61.1,20.9,26.59,South,180,0.0,2.9,21,0.00,,,0.00,VWS V14.01,2013-02-23 17:57:00,
2013-02-23 11:02:00,60.8,20.6,26.59,East,90,0.0,0.0,21,0.00,,,0.00,VWS V14.01,2013-02-23 18:02:00,
2013-02-23 11:07:00,61.5,21.2,26.60,SE,135,0.0,4.2,21,0.00,,,0.00,VWS V14.01,2013-02-23 18:07:00,
2013-02-23 11:12:00,62.7,22.2,26.59,ESE,112,0.8,4.2,21,0.00,,,0.00,VWS V14.01,2013-02-23 18:12:00,
2013-02-23 11:17:00,64.0,22.1,26.60,East,90,4.2,4.2,20,0.00,,,0.00,VWS V14.01,2013-02-23 18:17:00,
2013-02-23 11:22:00,64.4,21.3,26.60,SSE,158,2.6,4.6,19,0.00,,,0.00,VWS V14.01,2013-02-23 18:22:00,
2013-02-23 11:27:00,64.2,21.1,26.59,NE,45,0.6,4.6,19,0.00,,,0.00,VWS V14.01,2013-02-23 18:27:00,
2013-02-23 11:32:00,64.5,21.4,26.60,SE,135,6.2,6.2,19,0.00,,,0.00,VWS V14.01,2013-02-23 18:32:00,
2013-02-23 11:37:00,64.5,20.1,26.59,South,180,2.4,6.2,18,0.00,,,0.00,VWS V14.01,2013-02-23 18:37:00,
2013-02-23 11:42:00,64.2,21.1,26.59,WNW,292,0.0,6.2,19,0.00,,,0.00,VWS V14.01,2013-02-23 18:42:00,
2013-02-23 11:47:00,65.1,21.9,26.59,East,90,0.0,0.0,19,0.00,,,0.00,VWS V14.01,2013-02-23 18:47:00,
2013-02-23 11:52:00,65.4,20.8,26.59,NE,45,2.4,4.0,18,0.00,,,0.00,VWS V14.01,2013-02-23 18:52:00,
2013-02-23 11:57:00,64.4,20.0,26.58,NE,45,0.0,4.0,18,0.00,,,0.00,VWS V14.01,2013-02-23 18:57:00,
2013-02-23 12:02:00,64.2,19.8,26.58,SE,135,0.0,0.0,18,0.00,,,0.00,VWS V14.01,2013-02-23 19:02:00,
2013-02-23 12:07:00,64.7,20.2,26.58,South,180,0.0,5.5,18,0.00,,,0.00,VWS V14.01,2013-02-23 19:07:00,
2013-02-23 12:12:00,65.1,21.9,26.58,SW,225,0.0,5.5,19,0.00,,,0.00,VWS V14.01,2013-02-23 19:12:00,
2013-02-23 12:17:00,65.6,21.0,26.58,ENE,68,0.0,0.0,18,0.00,,,0.00,VWS V14.01,2013-02-23 19:17:00,
2013-02-23 12:22:00,65.1,19.2,26.58,East,90,6.4,8.9,17,0.00,,,0.00,VWS V14.01,2013-02-23 19:22:00,
2013-02-23 12:27:00,63.1,18.9,26.57,SE,135,2.0,8.9,18,0.00,,,0.00,VWS V14.01,2013-02-23 19:27:00,
2013-02-23 12:32:00,61.7,17.8,26.58,East,90,0.0,2.9,18,0.00,,,0.00,VWS V14.01,2013-02-23 19:32:00,
2013-02-23 12:37:00,59.7,17.4,26.57,SE,135,3.5,3.5,19,0.00,,,0.00,VWS V14.01,2013-02-23 19:37:00,
2013-02-23 12:43:00,57.9,15.9,26.57,East,90,3.1,4.9,19,0.00,,,0.00,VWS V14.01,2013-02-23 19:43:00,
2013-02-23 12:48:00,55.9,15.4,26.57,East,90,0.0,0.0,20,0.00,,,0.00,VWS V14.01,2013-02-23 19:48:00,
2013-02-23 12:53:00,55.0,15.8,26.57,NNW,338,0.0,6.0,21,0.00,,,0.00,VWS V14.01,2013-02-23 19:53:00,
2013-02-23 12:58:00,54.3,16.3,26.57,NE,45,0.0,6.0,22,0.00,,,0.00,VWS V14.01,2013-02-23 19:58:00,
2013-02-23 13:03:00,53.7,15.8,26.57,ESE,112,4.9,4.9,22,0.00,,,0.00,VWS V14.01,2013-02-23 20:03:00,
2013-02-23 13:08:00,53.0,16.2,26.57,ESE,112,2.2,4.9,23,0.00,,,0.00,VWS V14.01,2013-02-23 20:08:00,
2013-02-23 13:13:00,52.3,15.6,26.57,East,90,1.5,4.9,23,0.00,,,0.00,VWS V14.01,2013-02-23 20:13:00,
2013-02-23 13:18:00,51.9,15.3,26.57,ENE,68,1.7,5.5,23,0.00,,,0.00,VWS V14.01,2013-02-23 20:18:00,
2013-02-23 13:23:00,51.0,14.5,26.57,East,90,6.0,6.0,23,0.00,,,0.00,VWS V14.01,2013-02-23 20:23:00,
2013-02-23 13:28:00,50.5,15.1,26.57,ENE,68,1.7,6.0,24,0.00,,,0.00,VWS V14.01,2013-02-23 20:28:00,
2013-02-23 13:33:00,50.3,14.9,26.57,ESE,112,3.8,3.8,24,0.00,,,0.00,VWS V14.01,2013-02-23 20:33:00,
2013-02-23 13:38:00,50.1,14.7,26.57,East,90,3.1,3.8,24,0.00,,,0.00,VWS V14.01,2013-02-23 20:38:00,
2013-02-23 13:43:00,49.2,14.0,26.57,East,90,2.4,4.6,24,0.00,,,0.00,VWS V14.01,2013-02-23 20:43:00,
2013-02-23 13:48:00,48.9,14.6,26.57,ENE,68,5.3,5.3,25,0.00,,,0.00,VWS V14.01,2013-02-23 20:48:00,
2013-02-23 13:53:00,49.2,14.9,26.57,East,90,2.9,5.3,25,0.00,,,0.00,VWS V14.01,2013-02-23 20:53:00,
2013-02-23 13:58:00,49.6,15.2,26.57,ESE,112,2.9,5.3,25,0.00,,,0.00,VWS V14.01,2013-02-23 20:58:00,
2013-02-23 14:03:00,49.6,15.2,26.57,ENE,68,2.4,2.9,25,0.00,,,0.00,VWS V14.01,2013-02-23 21:03:00,
2013-02-23 14:08:00,49.6,15.2,26.57,East,90,3.1,5.3,25,0.00,,,0.00,VWS V14.01,2013-02-23 21:08:00,
2013-02-23 14:13:00,49.6,15.2,26.57,East,90,6.0,6.2,25,0.00,,,0.00,VWS V14.01,2013-02-23 21:13:00,
2013-02-23 14:18:00,49.8,15.4,26.57,East,90,2.9,6.0,25,0.00,,,0.00,VWS V14.01,2013-02-23 21:18:00,
2013-02-23 14:23:00,50.1,15.7,26.57,East,90,0.0,6.0,25,0.00,,,0.00,VWS V14.01,2013-02-23 21:23:00,
2013-02-23 14:28:00,50.7,16.2,26.57,NE,45,1.5,6.0,25,0.00,,,0.00,VWS V14.01,2013-02-23 21:28:00,
2013-02-23 14:33:00,50.7,16.2,26.57,SE,135,6.2,6.2,25,0.00,,,0.00,VWS V14.01,2013-02-23 21:33:00,
2013-02-23 14:38:00,50.7,16.2,26.57,East,90,2.4,6.2,25,0.00,,,0.00,VWS V14.01,2013-02-23 21:38:00,
2013-02-23 14:43:00,50.3,15.8,26.57,SE,135,4.6,6.2,25,0.00,,,0.00,VWS V14.01,2013-02-23 21:43:00,
2013-02-23 14:48:00,50.1,16.6,26.57,SE,135,0.0,3.3,26,0.00,,,0.00,VWS V14.01,2013-02-23 21:48:00,
2013-02-23 14:53:00,50.1,15.7,26.57,East,90,4.6,4.6,25,0.00,,,0.00,VWS V14.01,2013-02-23 21:53:00,
2013-02-23 14:58:00,50.0,15.6,26.57,East,90,2.2,4.6,25,0.00,,,0.00,VWS V14.01,2013-02-23 21:58:00,
2013-02-23 15:03:00,50.1,16.6,26.57,SE,135,2.4,3.1,26,0.00,,,0.00,VWS V14.01,2013-02-23 22:03:00,
2013-02-23 15:08:00,50.3,15.8,26.58,East,90,3.8,10.7,25,0.00,,,0.00,VWS V14.01,2013-02-23 22:08:00,
2013-02-23 15:13:00,49.8,15.4,26.58,SE,135,7.3,10.7,25,0.00,,,0.00,VWS V14.01,2013-02-23 22:13:00,
2013-02-23 15:19:00,49.2,14.9,26.58,ESE,112,3.1,3.8,25,0.00,,,0.00,VWS V14.01,2013-02-23 22:19:00,
2013-02-23 15:24:00,48.9,14.6,26.58,ENE,68,2.6,3.8,25,0.00,,,0.00,VWS V14.01,2013-02-23 22:24:00,
2013-02-23 15:29:00,49.1,15.7,26.58,NE,45,3.5,4.0,26,0.00,,,0.00,VWS V14.01,2013-02-23 22:29:00,
2013-02-23 15:34:00,49.1,16.6,26.58,East,90,4.6,4.6,27,0.00,,,0.00,VWS V14.01,2013-02-23 22:34:00,
2013-02-23 15:39:00,48.9,16.4,26.58,ENE,68,3.1,4.6,27,0.00,,,0.00,VWS V14.01,2013-02-23 22:39:00,
2013-02-23 15:44:00,48.7,16.2,26.58,ESE,112,6.7,6.7,27,0.00,,,0.00,VWS V14.01,2013-02-23 22:44:00,
2013-02-23 15:49:00,48.0,15.6,26.58,ENE,68,7.3,7.3,27,0.00,,,0.00,VWS V14.01,2013-02-23 22:49:00,
2013-02-23 15:54:00,47.8,15.5,26.58,ESE,112,2.4,7.3,27,0.00,,,0.00,VWS V14.01,2013-02-23 22:54:00,
2013-02-23 15:59:00,47.4,15.9,26.58,East,90,3.8,7.3,28,0.00,,,0.00,VWS V14.01,2013-02-23 22:59:00,
2013-02-23 16:04:00,47.1,15.7,26.58,East,90,3.8,4.0,28,0.00,,,0.00,VWS V14.01,2013-02-23 23:04:00,
2013-02-23 16:09:00,46.9,16.3,26.59,East,90,3.3,4.0,29,0.00,,,0.00,VWS V14.01,2013-02-23 23:09:00,
2013-02-23 16:14:00,46.5,16.0,26.59,East,90,4.9,5.5,29,0.00,,,0.00,VWS V14.01,2013-02-23 23:14:00,
2013-02-23 16:19:00,46.0,15.5,26.59,East,90,4.4,4.4,29,0.00,,,0.00,VWS V14.01,2013-02-23 23:19:00,
2013-02-23 16:24:00,45.6,16.0,26.59,ESE,112,5.1,5.1,30,0.00,,,0.00,VWS V14.01,2013-02-23 23:24:00,
2013-02-23 16:29:00,45.5,15.9,26.59,East,90,4.4,5.1,30,0.00,,,0.00,VWS V14.01,2013-02-23 23:29:00,
2013-02-23 16:34:00,45.1,15.5,26.59,East,90,2.9,3.8,30,0.00,,,0.00,VWS V14.01,2013-02-23 23:34:00,
2013-02-23 16:39:00,44.9,16.1,26.60,East,90,3.3,3.8,31,0.00,,,0.00,VWS V14.01,2013-02-23 23:39:00,
2013-02-23 16:44:00,44.7,15.9,26.60,East,90,1.7,3.8,31,0.00,,,0.00,VWS V14.01,2013-02-23 23:44:00,
2013-02-23 16:49:00,44.4,16.4,26.60,East,90,3.1,3.1,32,0.00,,,0.00,VWS V14.01,2013-02-23 23:49:00,
2013-02-23 16:54:00,44.2,16.2,26.60,East,90,4.0,4.0,32,0.00,,,0.00,VWS V14.01,2013-02-23 23:54:00,
2013-02-23 17:00:00,43.8,15.9,26.60,East,90,2.9,4.0,32,0.00,,,0.00,VWS V14.01,2013-02-24 00:00:00,
2013-02-23 17:05:00,43.5,16.3,26.60,East,90,1.3,3.1,33,0.00,,,0.00,VWS V14.01,2013-02-24 00:05:00,
2013-02-23 17:10:00,43.1,16.0,26.60,East,90,0.0,3.3,33,0.00,,,0.00,VWS V14.01,2013-02-24 00:10:00,
2013-02-23 17:15:00,42.9,16.5,26.61,East,90,1.7,3.3,34,0.00,,,0.00,VWS V14.01,2013-02-24 00:15:00,
2013-02-23 17:20:00,42.6,16.2,26.61,ENE,68,0.0,0.6,34,0.00,,,0.00,VWS V14.01,2013-02-24 00:20:00,
2013-02-23 17:25:00,42.6,16.2,26.61,ENE,68,0.0,0.6,34,0.00,,,0.00,VWS V14.01,2013-02-24 00:25:00,
2013-02-23 17:30:00,42.4,16.7,26.62,ENE,68,2.9,2.9,35,0.00,,,0.00,VWS V14.01,2013-02-24 00:30:00,
2013-02-23 17:35:00,42.0,16.4,26.61,NE,45,3.1,3.1,35,0.00,,,0.00,VWS V14.01,2013-02-24 00:35:00,
2013-02-23 17:40:00,41.7,16.7,26.62,ENE,68,1.5,3.1,36,0.00,,,0.00,VWS V14.01,2013-02-24 00:40:00,
2013-02-23 17:45:00,41.5,16.5,26.62,ENE,68,4.4,4.4,36,0.00,,,0.00,VWS V14.01,2013-02-24 00:45:00,
2013-02-23 17:50:00,41.3,16.4,26.62,ENE,68,2.9,3.3,36,0.00,,,0.00,VWS V14.01,2013-02-24 00:50:00,
2013-02-23 17:55:00,41.1,16.8,26.62,North,0,2.6,3.3,37,0.00,,,0.00,VWS V14.01,2013-02-24 00:55:00,
2013-02-23 18:00:00,40.8,16.6,26.62,NNE,22,2.6,3.5,37,0.00,,,0.00,VWS V14.01,2013-02-24 01:00:00,
2013-02-23 18:05:00,40.6,17.0,26.63,NE,45,3.1,3.1,38,0.00,,,0.00,VWS V14.01,2013-02-24 01:05:00,
2013-02-23 18:10:00,40.2,16.6,26.63,North,0,3.3,4.0,38,0.00,,,0.00,VWS V14.01,2013-02-24 01:10:00,
2013-02-23 18:15:00,40.1,16.5,26.63,ENE,68,0.0,0.0,38,0.00,,,0.00,VWS V14.01,2013-02-24 01:15:00,
2013-02-23 18:20:00,39.9,16.4,26.63,ENE,68,0.8,2.9,38,0.00,,,0.00,VWS V14.01,2013-02-24 01:20:00,
2013-02-23 18:25:00,39.9,16.4,26.63,ENE,68,1.7,2.9,38,0.00,,,0.00,VWS V14.01,2013-02-24 01:25:00,
2013-02-23 18:30:00,39.7,16.8,26.64,East,90,0.0,0.0,39,0.00,,,0.00,VWS V14.01,2013-02-24 01:30:00,
2013-02-23 18:35:00,39.3,16.4,26.64,East,90,0.0,0.0,39,0.00,,,0.00,VWS V14.01,2013-02-24 01:35:00,
2013-02-23 18:40:00,39.0,16.2,26.64,ESE,112,0.0,2.4,39,0.00,,,0.00,VWS V14.01,2013-02-24 01:40:00,
2013-02-23 18:45:00,38.6,16.4,26.64,East,90,0.6,0.6,40,0.00,,,0.00,VWS V14.01,2013-02-24 01:45:00,
2013-02-23 18:50:00,38.3,16.7,26.64,ESE,112,0.0,1.5,41,0.00,,,0.00,VWS V14.01,2013-02-24 01:50:00,
2013-02-23 18:55:00,37.9,16.3,26.64,ESE,112,0.0,1.5,41,0.00,,,0.00,VWS V14.01,2013-02-24 01:55:00,
2013-02-23 19:00:00,37.5,16.0,26.64,ESE,112,0.0,0.0,41,0.00,,,0.00,VWS V14.01,2013-02-24 02:00:00,
2013-02-23 19:05:00,37.2,16.2,26.65,ESE,112,0.0,0.0,42,0.00,,,0.00,VWS V14.01,2013-02-24 02:05:00,
2013-02-23 19:11:00,37.0,16.1,26.64,East,90,0.0,0.0,42,0.00,,,0.00,VWS V14.01,2013-02-24 02:11:00,
2013-02-23 19:16:00,36.6,16.2,26.64,East,90,0.0,0.0,43,0.00,,,0.00,VWS V14.01,2013-02-24 02:16:00,
2013-02-23 19:21:00,36.3,16.0,26.64,East,90,0.0,0.0,43,0.00,,,0.00,VWS V14.01,2013-02-24 02:21:00,
2013-02-23 19:26:00,36.1,16.3,26.65,North,0,1.5,1.5,44,0.00,,,0.00,VWS V14.01,2013-02-24 02:26:00,
2013-02-23 19:31:00,35.7,16.5,26.65,North,0,0.0,0.0,45,0.00,,,0.00,VWS V14.01,2013-02-24 02:31:00,
2013-02-23 19:36:00,35.4,16.2,26.65,WNW,292,0.0,1.5,45,0.00,,,0.00,VWS V14.01,2013-02-24 02:36:00,
2013-02-23 19:41:00,35.4,16.7,26.65,WNW,292,0.0,1.5,46,0.00,,,0.00,VWS V14.01,2013-02-24 02:41:00,
2013-02-23 19:46:00,35.2,16.5,26.65,North,0,2.0,2.0,46,0.00,,,0.00,VWS V14.01,2013-02-24 02:46:00,
2013-02-23 19:51:00,34.8,16.6,26.66,NNW,338,0.0,2.4,47,0.00,,,0.00,VWS V14.01,2013-02-24 02:51:00,
2013-02-23 19:56:00,34.7,16.5,26.66,NNW,338,0.0,2.4,47,0.00,,,0.00,VWS V14.01,2013-02-24 02:56:00,
2013-02-23 20:01:00,34.5,16.4,26.66,NNW,338,0.0,0.0,47,0.00,,,0.00,VWS V14.01,2013-02-24 03:01:00,
2013-02-23 20:06:00,34.3,16.2,26.67,NE,45,0.0,0.0,47,0.00,,,0.00,VWS V14.01,2013-02-24 03:06:00,
2013-02-23 20:11:00,34.1,16.0,26.67,ESE,112,0.0,0.0,47,0.00,,,0.00,VWS V14.01,2013-02-24 03:11:00,
2013-02-23 20:16:00,33.9,15.8,26.67,ESE,112,0.0,0.0,47,0.00,,,0.00,VWS V14.01,2013-02-24 03:16:00,
2013-02-23 20:21:00,33.6,16.0,26.67,SE,135,0.0,0.0,48,0.00,,,0.00,VWS V14.01,2013-02-24 03:21:00,
2013-02-23 20:26:00,33.6,16.0,26.67,SSE,158,0.0,0.0,48,0.00,,,0.00,VWS V14.01,2013-02-24 03:26:00,
2013-02-23 20:31:00,33.2,16.1,26.68,SSE,158,0.0,0.0,49,0.00,,,0.00,VWS V14.01,2013-02-24 03:31:00,
2013-02-23 20:36:00,32.9,15.9,26.68,SSE,158,0.0,0.0,49,0.00,,,0.00,VWS V14.01,2013-02-24 03:36:00,
2013-02-23 20:41:00,32.7,15.7,26.68,ESE,112,0.0,0.0,49,0.00,,,0.00,VWS V14.01,2013-02-24 03:41:00,
2013-02-23 20:46:00,32.3,15.8,26.68,ESE,112,0.0,0.0,50,0.00,,,0.00,VWS V14.01,2013-02-24 03:46:00,
2013-02-23 20:51:00,31.8,15.3,26.68,ENE,68,0.0,0.0,50,0.00,,,0.00,VWS V14.01,2013-02-24 03:51:00,
2013-02-23 20:56:00,31.8,15.8,26.69,North,0,0.0,0.0,51,0.00,,,0.00,VWS V14.01,2013-02-24 03:56:00,
2013-02-23 21:01:00,31.6,16.0,26.69,NE,45,0.0,0.0,52,0.00,,,0.00,VWS V14.01,2013-02-24 04:01:00,
2013-02-23 21:06:00,31.2,15.6,26.69,NNW,338,0.0,0.0,52,0.00,,,0.00,VWS V14.01,2013-02-24 04:06:00,
2013-02-23 21:11:00,31.2,15.6,26.69,West,270,0.0,0.0,52,0.00,,,0.00,VWS V14.01,2013-02-24 04:11:00,
2013-02-23 21:17:00,31.1,16.0,26.69,West,270,0.0,0.0,53,0.00,,,0.00,VWS V14.01,2013-02-24 04:17:00,
2013-02-23 21:22:00,31.1,16.0,26.69,WNW,292,0.0,0.0,53,0.00,,,0.00,VWS V14.01,2013-02-24 04:22:00,
2013-02-23 21:27:00,30.9,16.2,26.69,North,0,1.5,1.5,54,0.00,,,0.00,VWS V14.01,2013-02-24 04:27:00,
2013-02-23 21:32:00,30.7,16.5,26.70,NNW,338,5.5,5.5,55,0.00,,,0.00,VWS V14.01,2013-02-24 04:32:00,
2013-02-23 21:37:00,30.7,16.9,26.70,NNE,22,0.0,5.5,56,0.00,,,0.00,VWS V14.01,2013-02-24 04:37:00,
2013-02-23 21:42:00,30.7,16.9,26.70,NNW,338,0.0,5.5,56,0.00,,,0.00,VWS V14.01,2013-02-24 04:42:00,
2013-02-23 21:47:00,30.9,17.1,26.70,WNW,292,1.5,1.5,56,0.00,,,0.00,VWS V14.01,2013-02-24 04:47:00,
2013-02-23 21:52:00,31.2,17.3,26.70,North,0,0.0,3.8,56,0.00,,,0.00,VWS V14.01,2013-02-24 04:52:00,
2013-02-23 21:57:00,31.4,17.5,26.70,NNW,338,1.7,3.8,56,0.00,,,0.00,VWS V14.01,2013-02-24 04:57:00,
2013-02-23 22:00:00,31.6,17.7,26.70,NNW,338,3.8,3.8,56,0.00,,,0.00,VWS V14.01,2013-02-24 05:00:00,
2013-02-23 22:02:00,31.8,17.9,26.70,NNW,338,4.4,4.4,56,0.00,,,0.00,VWS V14.01,2013-02-24 05:02:00,
2013-02-23 22:04:00,31.8,17.9,26.70,North,0,5.3,5.3,56,0.00,,,0.00,VWS V14.01,2013-02-24 05:04:00,
2013-02-23 22:07:00,32.1,17.8,26.70,NNW,338,4.4,5.3,55,0.00,,,0.00,VWS V14.01,2013-02-24 05:07:00,
2013-02-23 22:12:00,32.3,18.0,26.70,NNW,338,6.4,6.4,55,0.00,,,0.00,VWS V14.01,2013-02-24 05:12:00,
2013-02-23 22:17:00,32.7,18.3,26.70,NNW,338,3.1,3.3,55,0.00,,,0.00,VWS V14.01,2013-02-24 05:17:00,
2013-02-23 22:22:00,33.0,18.6,26.70,North,0,4.2,4.4,55,0.00,,,0.00,VWS V14.01,2013-02-24 05:22:00,
2013-02-23 22:27:00,33.2,19.2,26.70,North,0,3.5,4.4,56,0.00,,,0.00,VWS V14.01,2013-02-24 05:27:00,
2013-02-23 22:32:00,33.4,19.8,26.71,North,0,3.5,4.4,57,0.00,,,0.00,VWS V14.01,2013-02-24 05:32:00,
2013-02-23 22:37:00,33.6,20.4,26.71,NNW,338,7.3,7.3,58,0.00,,,0.00,VWS V14.01,2013-02-24 05:37:00,
2013-02-23 22:42:00,33.6,20.8,26.71,NW,315,6.2,7.3,59,0.00,,,0.00,VWS V14.01,2013-02-24 05:42:00,
2013-02-23 22:47:00,33.6,21.2,26.71,NNE,22,4.9,4.9,60,0.00,,,0.00,VWS V14.01,2013-02-24 05:47:00,
2013-02-23 22:52:00,33.6,22.0,26.71,NNW,338,6.2,6.4,62,0.00,,,0.00,VWS V14.01,2013-02-24 05:52:00,
2013-02-23 22:57:00,33.9,22.6,26.71,North,0,5.5,6.7,63,0.00,,,0.00,VWS V14.01,2013-02-24 05:57:00,
2013-02-23 23:02:00,33.9,23.4,26.71,NNW,338,3.1,4.6,65,0.00,,,0.00,VWS V14.01,2013-02-24 06:02:00,
2013-02-23 23:07:00,34.1,24.0,26.71,North,0,6.2,6.9,66,0.00,,,0.00,VWS V14.01,2013-02-24 06:07:00,
2013-02-23 23:12:00,34.1,24.3,26.71,NNW,338,4.2,6.9,67,0.00,,,0.00,VWS V14.01,2013-02-24 06:12:00,
2013-02-23 23:17:00,34.3,24.9,26.71,North,0,1.5,6.7,68,0.00,,,0.00,VWS V14.01,2013-02-24 06:17:00,
2013-02-23 23:22:00,34.3,24.9,26.72,North,0,5.5,6.7,68,0.00,,,0.00,VWS V14.01,2013-02-24 06:22:00,
2013-02-23 23:28:00,34.3,25.2,26.72,NNW,338,2.6,6.7,69,0.00,,,0.00,VWS V14.01,2013-02-24 06:28:00,
2013-02-23 23:33:00,34.3,25.5,26.72,NNW,338,7.3,8.2,70,0.00,,,0.00,VWS V14.01,2013-02-24 06:33:00,
2013-02-23 23:38:00,34.5,25.7,26.71,NNW,338,6.9,8.2,70,0.00,,,0.00,VWS V14.01,2013-02-24 06:38:00,
2013-02-23 23:43:00,34.3,25.9,26.72,North,0,4.4,8.2,71,0.00,,,0.00,VWS V14.01,2013-02-24 06:43:00,
2013-02-23 23:48:00,34.3,25.9,26.72,North,0,5.8,5.8,71,0.00,,,0.00,VWS V14.01,2013-02-24 06:48:00,
2013-02-23 23:53:00,34.1,25.7,26.72,NNW,338,5.1,6.0,71,0.00,,,0.00,VWS V14.01,2013-02-24 06:53:00,
2013-02-23 23:58:00,33.9,26.2,26.73,North,0,6.0,8.7,73,0.00,,,0.00,VWS V14.01,2013-02-24 06:58:00,